Terminal Aerodrome Forecast
Issued by NWS Cleveland, OH

Home | Current Version | Previous Version | Text Only | Print | Product List | Glossary On
Versions: 1 2 3 4 5 6 7 8 9 10 11 12 13 14 15 16 17 18 19 20
606
FTUS41 KCLE 302113 AAA
TAFYNG
TAF AMD
KYNG 302113Z 3021/3118 VRB05KT P6SM SCT025 BKN050
      TEMPO 3021/3023 3SM TSRA OVC025CB
     FM310000 15003KT P6SM BKN070
     FM311000 VRB03KT 4SM BR OVC010
     FM311530 25007KT P6SM BKN035=

USA.gov is the U.S. government's official web portal to all federal, state and local government web resources and services.